Time;durP1;ratioP1;P1;durP2;ratioP2;P2;SDS_P1;SDS_P2;PMS_P1;PMS_P2;Temp;Humidity;BMP_temperature;BMP_pressure;BME280_temperature;BME280_humidity;BME280_pressure;Samples;Min_cycle;Max_cycle;Signal;HPM_P1;HPM_P2
2022/06/25 00:00:33;;;;;;;15.43;14.82;;;;;;;-141.02;100.00;83603.94;5113877;28;20193;-82
2022/06/25 00:03:01;;;;;;;15.25;14.65;;;;;;;-141.02;100.00;83578.69;5113813;28;20228;-76
2022/06/25 00:05:27;;;;;;;15.70;15.00;;;;;;;-141.02;100.00;83598.13;5113660;28;20281;-76
2022/06/25 00:07:54;;;;;;;15.95;15.25;;;;;;;-141.02;100.00;83551.50;5113734;28;20201;-75
2022/06/25 00:10:21;;;;;;;15.85;15.15;;;;;;;-141.02;100.00;83565.09;5113697;28;20236;-75
2022/06/25 00:12:47;;;;;;;15.68;14.98;;;;;;;-141.02;100.00;83598.13;5113612;28;20711;-82
2022/06/25 00:15:14;;;;;;;15.20;14.60;;;;;;;-141.02;100.00;83621.44;5113576;28;20197;-76
2022/06/25 00:17:41;;;;;;;15.02;14.43;;;;;;;-141.02;100.00;83590.34;5113510;28;20204;-75
2022/06/25 00:20:12;;;;;;;15.30;14.70;;;;;;;-141.02;100.00;83609.78;5113494;28;20194;-75
2022/06/25 00:22:39;;;;;;;15.00;14.40;;;;;;;-141.02;100.00;83621.44;5113984;28;20254;-75
2022/06/25 00:25:06;;;;;;;14.95;14.35;;;;;;;-141.02;100.00;83609.78;5113313;28;20220;-75
2022/06/25 00:27:33;;;;;;;13.80;13.30;;;;;;;-141.02;100.00;83627.25;5113658;28;20196;-75
2022/06/25 00:30:00;;;;;;;14.13;13.63;;;;;;;-141.02;100.00;83664.19;5112968;28;20224;-76
2022/06/25 00:32:27;;;;;;;14.30;13.80;;;;;;;-141.02;100.00;83706.94;5112936;28;20196;-75
2022/06/25 00:34:54;;;;;;;13.90;13.40;;;;;;;-141.02;100.00;83774.94;5113183;28;20232;-76
2022/06/25 00:37:23;;;;;;;13.88;13.38;;;;;;;-141.02;100.00;83782.69;5112888;28;20197;-75
2022/06/25 00:39:50;;;;;;;13.38;12.88;;;;;;;-141.02;100.00;83776.88;5112841;28;20283;-75
2022/06/25 00:42:18;;;;;;;12.80;12.40;;;;;;;-141.02;100.00;83885.69;5113106;28;20192;-75
2022/06/25 00:44:45;;;;;;;12.85;12.45;;;;;;;-141.02;100.00;83920.66;5112394;28;20201;-75
2022/06/25 00:47:14;;;;;;;12.45;12.05;;;;;;;-141.02;100.00;83994.50;5112605;28;20557;-75
2022/06/25 00:49:41;;;;;;;11.85;11.45;;;;;;;-141.02;100.00;83862.38;5112715;28;20272;-82
2022/06/25 00:52:12;;;;;;;11.88;11.48;;;;;;;-141.02;100.00;84095.53;5112628;28;20232;-75
2022/06/25 00:54:46;;;;;;;11.73;11.32;;;;;;;-141.02;100.00;84122.75;5112969;28;20193;-75
2022/06/25 00:57:18;;;;;;;11.68;11.27;;;;;;;-141.02;100.00;84155.78;5112626;28;20232;-75
2022/06/25 00:59:49;;;;;;;11.50;11.10;;;;;;;-141.02;100.00;84177.16;5112602;28;20189;-76
2022/06/25 01:02:16;;;;;;;11.82;11.43;;;;;;;-141.02;100.00;84200.47;5112538;28;20764;-75
2022/06/25 01:04:43;;;;;;;11.15;10.82;;;;;;;-141.02;100.00;84270.41;5112428;28;20285;-75
2022/06/25 01:07:10;;;;;;;10.70;10.40;;;;;;;-141.02;100.00;84317.06;5112763;28;20276;-76
2022/06/25 01:09:38;;;;;;;10.52;10.23;;;;;;;-141.02;100.00;84394.78;5112700;28;20281;-76
2022/06/25 01:12:07;;;;;;;10.27;9.98;;;;;;;-141.02;100.00;84416.16;5112407;28;20199;-76
2022/06/25 01:14:35;;;;;;;10.50;10.20;;;;;;;-141.02;100.00;84425.88;5112629;28;20197;-76
2022/06/25 01:17:05;;;;;;;10.45;10.15;;;;;;;-141.02;100.00;84480.31;5112392;28;20671;-77
2022/06/25 01:19:33;;;;;;;11.05;10.75;;;;;;;-141.02;100.00;84476.41;5112653;28;20276;-78
2022/06/25 01:22:03;;;;;;;11.80;11.40;;;;;;;-141.02;100.00;84507.50;5112857;28;20197;-76
2022/06/25 01:24:31;;;;;;;10.93;10.63;;;;;;;-141.02;100.00;84495.84;5112344;28;20181;-76
2022/06/25 01:26:58;;;;;;;11.18;10.80;;;;;;;-141.02;100.00;84513.34;5112235;28;20721;-78
2022/06/25 01:29:25;;;;;;;11.02;10.73;;;;;;;-141.02;100.00;84486.13;5112244;28;20197;-77
2022/06/25 01:31:53;;;;;;;11.85;11.45;;;;;;;-141.02;100.00;84484.19;5112175;28;20193;-77
2022/06/25 01:34:20;;;;;;;12.27;11.88;;;;;;;-141.02;100.00;84495.84;5112503;28;20193;-76
2022/06/25 01:36:47;;;;;;;12.38;11.98;;;;;;;-141.02;100.00;84445.31;5112493;28;20193;-76
2022/06/25 01:39:15;;;;;;;12.10;11.70;;;;;;;-141.02;100.00;84468.63;5112496;28;20253;-77
2022/06/25 01:41:42;;;;;;;12.20;11.80;;;;;;;-141.02;100.00;84445.31;5112518;28;20193;-76
2022/06/25 01:44:09;;;;;;;12.77;12.38;;;;;;;-141.02;100.00;84447.25;5112097;28;20608;-76
2022/06/25 01:46:36;;;;;;;13.38;12.88;;;;;;;-141.02;100.00;84422.00;5112341;28;20233;-76
2022/06/25 01:49:03;;;;;;;13.52;13.02;;;;;;;-141.02;100.00;84420.06;5112421;28;20615;-76
2022/06/25 01:51:30;;;;;;;13.25;12.75;;;;;;;-141.02;100.00;84410.34;5112102;28;20193;-76
2022/06/25 01:53:57;;;;;;;13.65;13.15;;;;;;;-141.02;100.00;84387.03;5112013;28;20571;-75
2022/06/25 01:56:26;;;;;;;13.57;13.07;;;;;;;-141.02;100.00;84385.06;5112946;28;20309;-78
2022/06/25 01:58:53;;;;;;;13.80;13.30;;;;;;;-141.02;100.00;84371.47;5115939;28;20197;-76
2022/06/25 02:01:20;;;;;;;13.68;13.18;;;;;;;-141.02;100.00;84350.09;5116104;28;20225;-76
2022/06/25 02:03:47;;;;;;;13.60;13.10;;;;;;;-141.02;100.00;84363.69;5116437;28;20345;-75
2022/06/25 02:06:14;;;;;;;13.50;13.00;;;;;;;-141.02;100.00;84352.03;5116375;28;20262;-76
2022/06/25 02:08:42;;;;;;;13.02;12.52;;;;;;;-141.02;100.00;84346.22;5116081;28;20221;-76
2022/06/25 02:11:10;;;;;;;14.57;13.98;;;;;;;-141.02;100.00;84196.56;5115742;28;20189;-76
2022/06/25 02:13:39;;;;;;;14.35;13.75;;;;;;;-141.02;100.00;84324.84;5116206;27;20218;-76
2022/06/25 02:16:07;;;;;;;13.88;13.38;;;;;;;-141.02;100.00;84361.75;5115980;28;20239;-76
2022/06/25 02:18:34;;;;;;;13.98;13.45;;;;;;;-141.02;100.00;84320.94;5116135;28;20235;-75
2022/06/25 02:21:01;;;;;;;14.25;13.65;;;;;;;-141.02;100.00;84320.94;5115859;27;20221;-76
2022/06/25 02:23:28;;;;;;;14.43;13.82;;;;;;;-141.02;100.00;84247.09;5115782;28;20201;-76
2022/06/25 02:25:55;;;;;;;14.13;13.63;;;;;;;-141.02;100.00;84274.31;5115335;28;20225;-75
2022/06/25 02:28:22;;;;;;;14.00;13.50;;;;;;;-141.02;100.00;84317.06;5115398;28;20197;-75
2022/06/25 02:30:50;;;;;;;14.60;14.00;;;;;;;-141.02;100.00;83903.16;5115557;28;20658;-75
2022/06/25 02:33:19;;;;;;;14.60;14.00;;;;;;;-141.02;100.00;84276.25;5115264;28;20734;-75
2022/06/25 02:35:46;;;;;;;14.98;14.38;;;;;;;-141.02;100.00;84282.09;5115575;28;20197;-75
2022/06/25 02:38:14;;;;;;;14.95;14.35;;;;;;;-141.02;100.00;84270.41;5115176;28;20193;-75
2022/06/25 02:40:41;;;;;;;15.57;14.88;;;;;;;-141.02;100.00;84243.22;5115452;28;20271;-75
2022/06/25 02:43:08;;;;;;;15.75;15.05;;;;;;;-141.02;100.00;84229.63;5115021;28;20229;-75
2022/06/25 02:45:35;;;;;;;16.45;15.75;;;;;;;-141.02;100.00;84204.34;5115296;28;20224;-76
2022/06/25 02:48:04;;;;;;;15.10;14.50;;;;;;;-141.02;100.00;84216.00;5115329;27;20194;-75
2022/06/25 02:50:31;;;;;;;14.55;13.95;;;;;;;-141.02;100.00;84227.66;5115258;28;20642;-75
2022/06/25 02:52:58;;;;;;;13.85;13.35;;;;;;;-141.02;100.00;84157.72;5115231;28;20197;-76
2022/06/25 03:00:51;;;;;;;12.65;12.25;;;;;;;-141.02;100.00;84157.72;5115180;28;20181;-75
2022/06/25 03:03:19;;;;;;;12.98;12.57;;;;;;;-141.02;100.00;84126.63;5114708;28;20231;-76
2022/06/25 03:05:47;;;;;;;12.68;12.27;;;;;;;-141.02;100.00;84091.66;5114650;28;20728;-76
2022/06/25 03:08:14;;;;;;;13.10;12.60;;;;;;;-141.02;100.00;84083.88;5114159;28;20201;-76
2022/06/25 03:10:41;;;;;;;13.13;12.63;;;;;;;-141.02;100.00;84091.66;5114927;28;20197;-76
2022/06/25 03:13:08;;;;;;;13.55;13.05;;;;;;;-141.02;100.00;84058.63;5114805;28;20232;-75
2022/06/25 03:15:35;;;;;;;13.77;13.27;;;;;;;-141.02;100.00;84058.63;5114853;28;20235;-76
2022/06/25 03:18:02;;;;;;;13.90;13.40;;;;;;;-141.02;100.00;84068.31;5115328;28;20197;-75
2022/06/25 03:20:30;;;;;;;14.40;13.80;;;;;;;-141.02;100.00;84021.69;5114705;28;20197;-75
2022/06/25 03:22:58;;;;;;;14.48;13.88;;;;;;;-141.02;100.00;84025.59;5114268;28;20205;-75
2022/06/25 03:25:25;;;;;;;14.73;14.13;;;;;;;-141.02;100.00;84025.59;5114471;28;20727;-75
2022/06/25 03:27:52;;;;;;;15.30;14.70;;;;;;;-141.02;100.00;84035.28;5114228;28;20714;-76
2022/06/25 03:30:19;;;;;;;14.80;14.20;;;;;;;-141.02;100.00;84006.16;5114563;28;20196;-75
2022/06/25 03:32:46;;;;;;;15.07;14.48;;;;;;;-141.02;100.00;84037.25;5114446;28;20250;-75
2022/06/25 03:35:13;;;;;;;15.32;14.65;;;;;;;-141.02;100.00;84023.63;5114481;28;20251;-75
2022/06/25 03:37:42;;;;;;;15.20;14.60;;;;;;;-141.02;100.00;84010.03;5114115;28;20240;-75
2022/06/25 03:40:11;;;;;;;15.10;14.50;;;;;;;-141.02;100.00;84015.88;5115103;28;20193;-75
2022/06/25 03:42:38;;;;;;;15.13;14.52;;;;;;;-141.02;100.00;84029.47;5113989;28;20250;-74
2022/06/25 03:45:06;;;;;;;15.30;14.70;;;;;;;-141.02;100.00;83988.66;5114243;28;20278;-74
2022/06/25 03:47:33;;;;;;;15.68;14.98;;;;;;;-141.02;100.00;84002.25;5114126;28;20225;-74
2022/06/25 03:50:00;;;;;;;15.20;14.60;;;;;;;-141.02;100.00;83980.88;5113872;28;20193;-75
2022/06/25 03:52:27;;;;;;;13.95;13.45;;;;;;;-141.02;100.00;84000.31;5114091;28;20201;-75
2022/06/25 03:54:55;;;;;;;14.73;14.13;;;;;;;-141.02;100.00;83994.50;5114059;28;20651;-75
2022/06/25 03:57:22;;;;;;;14.55;13.95;;;;;;;-141.02;100.00;83980.88;5113722;28;20312;-75
2022/06/25 03:59:49;;;;;;;14.40;13.80;;;;;;;-141.02;100.00;84025.59;5113989;28;20201;-75
2022/06/25 04:02:16;;;;;;;14.10;13.60;;;;;;;-141.02;100.00;84000.31;5113583;28;20689;-75
2022/06/25 04:04:43;;;;;;;14.00;13.50;;;;;;;-141.02;100.00;84010.03;5113864;28;20606;-74
2022/06/25 04:07:10;;;;;;;14.57;13.98;;;;;;;-141.02;100.00;83982.84;5113438;28;20778;-74
2022/06/25 04:09:38;;;;;;;14.65;14.05;;;;;;;-141.02;100.00;83986.72;5113765;28;20255;-74
2022/06/25 04:12:07;;;;;;;14.75;14.15;;;;;;;-141.02;100.00;83980.88;5113761;28;20272;-74
2022/06/25 04:14:34;;;;;;;14.95;14.35;;;;;;;-141.02;100.00;83973.13;5113354;28;20609;-74
2022/06/25 04:17:01;;;;;;;14.98;14.38;;;;;;;-141.02;100.00;83947.84;5113684;28;20192;-74
2022/06/25 04:19:28;;;;;;;14.88;14.27;;;;;;;-141.02;100.00;83912.88;5113162;28;20233;-75
2022/06/25 04:21:55;;;;;;;14.90;14.30;;;;;;;-141.02;100.00;83910.94;5113207;28;20746;-75
2022/06/25 04:24:22;;;;;;;14.93;14.32;;;;;;;-141.02;100.00;83912.88;5113507;28;20189;-75
2022/06/25 04:26:49;;;;;;;14.75;14.15;;;;;;;-141.02;100.00;83874.03;5113057;28;20316;-75
2022/06/25 04:29:16;;;;;;;14.88;14.27;;;;;;;-141.02;100.00;83862.38;5113436;28;20220;-75
2022/06/25 04:31:44;;;;;;;15.55;14.95;;;;;;;-141.02;100.00;83854.59;5113004;28;20203;-75
2022/06/25 04:34:11;;;;;;;16.45;15.75;;;;;;;-141.02;100.00;83846.81;5113053;28;20230;-75
2022/06/25 04:36:38;;;;;;;16.20;15.50;;;;;;;-141.02;100.00;83835.16;5112943;28;20293;-75
2022/06/25 04:39:05;;;;;;;17.52;16.73;;;;;;;-141.02;100.00;83817.69;5113955;28;20199;-75
2022/06/25 04:41:32;;;;;;;18.38;17.48;;;;;;;-141.02;100.00;83815.72;5113131;28;20225;-74
2022/06/25 04:44:01;;;;;;;17.90;17.02;;;;;;;-141.02;100.00;83842.94;5112781;28;20578;-74
2022/06/25 04:46:30;;;;;;;17.05;16.35;;;;;;;-141.02;100.00;83508.75;5113045;28;20240;-74
2022/06/25 04:48:58;;;;;;;17.27;16.48;;;;;;;-141.02;100.00;83815.72;5113017;28;20279;-74
2022/06/25 04:51:25;;;;;;;17.45;16.65;;;;;;;-141.02;100.00;83788.53;5112741;28;20577;-75
2022/06/25 04:53:58;;;;;;;17.13;16.35;;;;;;;-141.02;100.00;83749.66;5112952;28;20227;-75
2022/06/25 04:56:26;;;;;;;17.55;16.75;;;;;;;-141.02;100.00;83753.56;5112615;28;20655;-75
2022/06/25 04:58:54;;;;;;;17.27;16.58;;;;;;;-141.02;100.00;83724.41;5112670;28;20224;-82
2022/06/25 05:01:23;;;;;;;16.83;16.13;;;;;;;-141.02;100.00;83718.59;5112584;28;20694;-75
2022/06/25 05:03:51;;;;;;;16.98;16.27;;;;;;;-141.02;100.00;83603.94;5112583;28;20249;-76
2022/06/25 05:06:18;;;;;;;18.08;17.27;;;;;;;-141.02;100.00;83706.94;5112719;28;20228;-75
2022/06/25 05:08:45;;;;;;;17.58;16.77;;;;;;;-141.02;100.00;83646.69;5112559;28;20225;-75
2022/06/25 05:11:12;;;;;;;17.50;16.70;;;;;;;-141.02;100.00;83596.19;5113070;28;20222;-75
2022/06/25 05:13:39;;;;;;;16.80;16.10;;;;;;;-141.02;100.00;83625.31;5112443;28;20199;-75
2022/06/25 05:16:06;;;;;;;17.13;16.33;;;;;;;-141.02;100.00;83605.91;5112734;28;20193;-75
2022/06/25 05:18:34;;;;;;;17.10;16.30;;;;;;;-141.02;100.00;83578.69;5112639;28;20584;-75
2022/06/25 05:21:03;;;;;;;17.02;16.23;;;;;;;-141.02;100.00;83547.59;5112395;28;20275;-75
2022/06/25 05:23:30;;;;;;;16.98;16.20;;;;;;;-141.02;100.00;83485.44;5113111;28;20232;-75
2022/06/25 05:25:57;;;;;;;17.38;16.58;;;;;;;-141.02;100.00;83267.84;5112628;28;20553;-74
2022/06/25 05:28:24;;;;;;;17.65;16.85;;;;;;;-141.02;100.00;83349.44;5112286;28;20285;-74
2022/06/25 05:30:51;;;;;;;17.70;16.90;;;;;;;-141.02;100.00;83225.13;5113379;28;20231;-75
2022/06/25 05:33:18;;;;;;;17.38;16.58;;;;;;;-141.02;100.00;83248.44;5116453;28;20358;-74
2022/06/25 05:35:45;;;;;;;17.52;16.63;;;;;;;-141.02;99.20;83252.31;5116741;28;20552;-73
2022/06/25 05:38:14;;;;;;;17.35;16.55;;;;;;;-141.02;100.00;83252.31;5116424;28;20246;-72
2022/06/25 05:40:41;;;;;;;17.52;16.65;;;;;;;-141.02;96.08;83217.34;5116276;28;20199;-72
2022/06/25 05:43:08;;;;;;;17.38;16.58;;;;;;;-141.02;94.92;83203.75;5116529;28;20239;-72
2022/06/25 05:45:35;;;;;;;17.23;16.42;;;;;;;-141.02;96.48;83258.13;5116567;28;20247;-72
2022/06/25 05:48:03;;;;;;;17.17;16.38;;;;;;;-141.02;100.00;83291.16;5116398;28;20228;-71
2022/06/25 05:50:30;;;;;;;17.17;16.38;;;;;;;-141.02;97.99;83271.75;5116154;28;20197;-72
2022/06/25 05:52:57;;;;;;;17.00;16.20;;;;;;;-141.02;99.54;83271.75;5116413;28;20361;-72
2022/06/25 05:55:26;;;;;;;17.17;16.38;;;;;;;-141.02;99.13;83291.16;5116110;28;20242;-72
2022/06/25 05:57:53;;;;;;;17.05;16.25;;;;;;;-141.02;98.14;83246.47;5116582;28;20181;-73
2022/06/25 06:00:20;;;;;;;17.08;16.27;;;;;;;-141.02;97.37;83271.75;5116162;28;20221;-73
2022/06/25 06:02:47;;;;;;;16.98;16.17;;;;;;;-141.02;98.16;83287.28;5116046;27;20201;-72
2022/06/25 06:05:14;;;;;;;17.30;16.42;;;;;;;-141.02;96.98;83252.31;5115770;28;20222;-72
2022/06/25 06:07:41;;;;;;;16.65;15.85;;;;;;;-141.02;94.52;83180.44;5115669;28;20662;-73
2022/06/25 06:10:09;;;;;;;16.50;15.70;;;;;;;-141.02;96.60;83221.22;5116137;28;20193;-75
2022/06/25 06:12:37;;;;;;;16.60;15.80;;;;;;;-141.02;96.92;83269.78;5115703;28;20671;-74
2022/06/25 06:15:05;;;;;;;16.52;15.73;;;;;;;-141.02;98.06;83244.53;5115637;28;20229;-74
2022/06/25 06:17:33;;;;;;;16.85;16.05;;;;;;;-141.02;93.42;83180.44;5115666;28;20189;-75
2022/06/25 06:20:00;;;;;;;16.27;15.57;;;;;;;-141.02;97.41;83201.81;5115818;28;20284;-75
2022/06/25 06:22:27;;;;;;;16.23;15.48;;;;;;;-141.02;94.78;83143.53;5115487;28;20702;-74
2022/06/25 06:24:54;;;;;;;17.23;16.42;;;;;;;-141.02;92.27;83157.13;5115645;28;20246;-73
2022/06/25 06:27:21;;;;;;;16.98;16.17;;;;;;;-141.02;93.71;83026.97;5115491;27;20257;-74
2022/06/25 06:29:50;;;;;;;17.30;16.50;;;;;;;-141.02;90.92;83151.28;5115555;28;20289;-74
2022/06/25 06:32:17;;;;;;;17.08;16.27;;;;;;;-141.02;91.84;83120.22;5115616;28;20284;-82
2022/06/25 06:34:44;;;;;;;16.75;15.95;;;;;;;-141.02;90.71;83133.81;5115254;27;20226;-73
2022/06/25 06:37:11;;;;;;;16.88;16.08;;;;;;;-141.02;91.94;83120.22;5115498;28;20201;-74
2022/06/25 06:39:38;;;;;;;16.65;15.85;;;;;;;-141.02;88.22;83013.38;5115331;28;20232;-73
2022/06/25 06:42:06;;;;;;;15.95;15.25;;;;;;;-141.02;89.59;83104.66;5115270;28;20228;-72
2022/06/25 06:44:33;;;;;;;16.00;15.30;;;;;;;-141.02;89.59;83104.66;5113998;28;20224;-71
2022/06/25 06:47:01;;;;;;;16.15;15.35;;;;;;;-141.02;87.92;83083.31;5115194;28;20275;-72
2022/06/25 06:49:28;;;;;;;16.63;15.82;;;;;;;-141.02;89.83;83094.97;5114911;28;20705;-74
2022/06/25 06:51:55;;;;;;;17.00;16.20;;;;;;;-141.02;86.93;83067.75;5114991;28;20702;-78
2022/06/25 06:54:22;;;;;;;16.75;15.95;;;;;;;-141.02;86.46;83061.94;5115054;28;20193;-73
2022/06/25 06:56:49;;;;;;;16.95;16.15;;;;;;;-141.02;84.29;83028.91;5114623;28;20256;-74
2022/06/25 06:59:16;;;;;;;16.90;16.10;;;;;;;-141.02;87.04;83023.09;5115112;27;20204;-73
2022/06/25 07:01:43;;;;;;;16.80;16.00;;;;;;;-141.02;84.25;82988.13;5115076;28;20230;-72
2022/06/25 07:04:12;;;;;;;16.95;16.15;;;;;;;-141.02;84.79;83007.53;5114628;28;20235;-72
2022/06/25 07:06:39;;;;;;;17.02;16.23;;;;;;;-141.02;82.08;82992.00;5114778;28;20280;-77
2022/06/25 07:09:06;;;;;;;17.20;16.30;;;;;;;-141.02;79.30;82929.84;5114937;28;20225;-75
2022/06/25 07:11:33;;;;;;;17.20;16.30;;;;;;;-141.02;76.30;82906.53;5114530;28;20289;-74
2022/06/25 07:14:01;;;;;;;17.50;16.60;;;;;;;-141.02;74.82;82823.00;5115603;28;20219;-73
2022/06/25 07:16:29;;;;;;;18.10;16.85;;;;;;;-141.02;69.85;82859.91;5114635;28;20197;-71
2022/06/25 07:18:57;;;;;;;17.13;16.23;;;;;;;-141.02;74.37;82902.66;5114462;28;20288;-73
2022/06/25 07:21:26;;;;;;;16.95;16.15;;;;;;;-141.02;76.13;82871.56;5115007;28;20273;-74
2022/06/25 07:23:54;;;;;;;17.20;16.40;;;;;;;-141.02;69.81;82731.72;5114728;28;20226;-73
2022/06/25 07:26:22;;;;;;;17.48;16.58;;;;;;;-141.02;68.58;82720.06;5114542;28;20232;-75
2022/06/25 07:28:52;;;;;;;17.13;16.33;;;;;;;-141.02;67.45;82673.44;5114509;28;20224;-74
2022/06/25 07:31:19;;;;;;;17.65;16.75;;;;;;;-141.02;66.28;82599.63;5114547;28;20261;-74
2022/06/25 07:33:46;;;;;;;18.05;17.05;;;;;;;-141.02;64.19;82568.56;5114462;28;20602;-72
2022/06/25 07:36:13;;;;;;;17.80;16.90;;;;;;;-141.02;65.04;82638.47;5114441;28;20246;-74
2022/06/25 07:38:41;;;;;;;17.13;16.23;;;;;;;-141.02;68.59;82720.06;5114399;28;20197;-72
2022/06/25 07:41:08;;;;;;;17.35;16.45;;;;;;;-141.02;67.85;82603.53;5113965;28;20739;-73
2022/06/25 07:43:35;;;;;;;17.13;16.23;;;;;;;-141.02;66.83;82652.06;5113927;28;20687;-74
2022/06/25 07:46:04;;;;;;;17.20;16.30;;;;;;;-141.02;67.93;82622.94;5114123;28;20577;-81
2022/06/25 07:48:31;;;;;;;17.58;16.67;;;;;;;-141.02;68.07;82704.53;5114116;28;20225;-72
2022/06/25 07:53:44;;;;;;;17.40;16.50;;;;;;;-141.02;68.97;82685.09;5114310;28;20184;-73
2022/06/25 07:56:11;;;;;;;17.85;16.95;;;;;;;-141.02;66.01;82578.28;5114047;28;20271;-73
2022/06/25 07:58:38;;;;;;;17.17;16.38;;;;;;;-141.02;67.93;82595.75;5114005;28;20258;-72
2022/06/25 08:01:05;;;;;;;17.60;16.70;;;;;;;-141.02;64.33;82467.56;5113556;28;20285;-72
2022/06/25 08:03:32;;;;;;;17.25;16.35;;;;;;;-141.02;63.75;82510.28;5113584;28;20236;-73
2022/06/25 08:06:00;;;;;;;18.88;17.77;;;;;;;-141.02;64.12;82514.16;5113749;28;20665;-72
2022/06/25 08:08:27;;;;;;;17.48;16.58;;;;;;;-141.02;64.22;82463.69;5113582;28;20609;-73
2022/06/25 08:10:55;;;;;;;17.60;16.70;;;;;;;-141.02;66.47;82527.78;5113676;28;20225;-72
2022/06/25 08:13:23;;;;;;;17.60;16.70;;;;;;;-141.02;63.90;82405.41;5114410;28;20197;-73
2022/06/25 08:15:50;;;;;;;18.35;17.35;;;;;;;-141.02;65.56;82560.78;5113496;28;20208;-72
2022/06/25 08:18:17;;;;;;;17.40;16.50;;;;;;;-141.02;65.72;82486.97;5113607;28;20230;-71
2022/06/25 08:20:44;;;;;;;17.75;16.85;;;;;;;-141.02;62.94;82397.63;5113205;28;20651;-81
2022/06/25 08:23:11;;;;;;;17.65;16.75;;;;;;;-141.02;64.36;82434.53;5113258;28;20246;-71
2022/06/25 08:25:38;;;;;;;17.95;17.05;;;;;;;-141.02;65.44;82475.31;5113088;28;20193;-71
2022/06/25 08:28:07;;;;;;;17.88;16.88;;;;;;;-141.02;63.87;82453.97;5113328;28;20256;-72
2022/06/25 08:30:35;;;;;;;17.92;17.00;;;;;;;-141.02;63.84;82380.16;5113070;28;20627;-73
2022/06/25 08:33:02;;;;;;;18.05;17.05;;;;;;;-141.02;64.36;82370.44;5113316;28;20243;-74
2022/06/25 08:35:30;;;;;;;18.73;17.73;;;;;;;-141.02;62.56;82947.31;5113291;28;20333;-73
2022/06/25 08:37:57;;;;;;;18.58;17.58;;;;;;;-141.02;61.04;82323.84;5113146;28;20193;-73
2022/06/25 08:40:24;;;;;;;17.90;16.90;;;;;;;-141.02;61.20;82296.66;5112869;28;20200;-72
2022/06/25 08:42:51;;;;;;;18.52;17.45;;;;;;;-141.02;59.85;82269.47;5112808;28;20663;-72
2022/06/25 08:45:20;;;;;;;18.45;17.45;;;;;;;-141.02;60.14;82296.66;5113089;28;20258;-72
2022/06/25 08:47:49;;;;;;;18.45;17.45;;;;;;;-141.02;60.53;82343.25;5112985;28;20270;-73
2022/06/25 08:50:19;;;;;;;18.40;17.35;;;;;;;-141.02;60.10;82255.88;5112968;28;20325;-72
2022/06/25 08:52:48;;;;;;;18.70;17.70;;;;;;;-141.02;60.10;82205.38;5113871;28;20280;-73
2022/06/25 08:55:25;;;;;;;18.60;17.50;;;;;;;-141.02;60.26;82207.31;5112738;28;20245;-72
2022/06/25 08:57:52;;;;;;;19.55;18.42;;;;;;;-141.02;59.29;82160.69;5112685;28;20189;-71
2022/06/25 09:00:21;;;;;;;19.85;18.75;;;;;;;-141.02;60.92;82218.97;5112833;28;20284;-73
2022/06/25 09:02:48;;;;;;;19.77;18.67;;;;;;;-141.02;61.84;82250.03;5112915;28;20197;-74
2022/06/25 09:05:15;;;;;;;18.85;17.77;;;;;;;-141.02;62.79;82308.31;5112808;28;20276;-71
2022/06/25 09:07:53;;;;;;;18.77;17.77;;;;;;;-141.02;62.20;82092.72;5111814;28;20229;-73
2022/06/25 09:10:21;;;;;;;19.52;18.42;;;;;;;-141.02;63.43;82312.19;5112800;28;20215;-73
2022/06/25 09:12:53;;;;;;;19.83;18.73;;;;;;;-141.02;60.95;82160.69;5112533;28;20728;-72
2022/06/25 09:15:23;;;;;;;20.23;19.02;;;;;;;-141.02;60.16;82180.13;5112840;28;20240;-71
2022/06/25 09:17:52;;;;;;;20.38;19.17;;;;;;;-141.02;59.54;82176.25;5112464;28;20675;-72
2022/06/25 09:20:19;;;;;;;20.33;19.13;;;;;;;-141.02;60.90;82203.44;5112757;28;20716;-73
2022/06/25 09:22:57;;;;;;;20.05;18.85;;;;;;;-141.02;59.11;82139.34;5112639;28;20193;-74
2022/06/25 09:25:26;;;;;;;20.10;18.80;;;;;;;-141.02;59.79;82149.06;5112384;28;20189;-72
2022/06/25 09:27:54;;;;;;;19.77;18.58;;;;;;;-141.02;60.35;82172.34;5112468;28;20763;-72
2022/06/25 09:30:23;;;;;;;20.20;18.90;;;;;;;-141.02;60.76;82121.84;5112638;28;20236;-73
2022/06/25 09:32:51;;;;;;;19.98;18.77;;;;;;;-141.02;57.31;82063.59;5112580;28;20197;-72
2022/06/25 09:35:32;;;;;;;19.80;18.55;;;;;;;-141.02;57.93;82094.66;5112561;28;20193;-72
2022/06/25 09:38:06;;;;;;;19.90;18.70;;;;;;;-141.02;58.07;82125.75;5112214;28;20272;-74
2022/06/25 09:40:34;;;;;;;19.65;18.45;;;;;;;-141.02;59.17;82106.31;5112207;28;20195;-73
2022/06/25 09:43:12;;;;;;;19.33;18.13;;;;;;;-141.02;58.59;82121.84;5112388;28;20193;-73
2022/06/25 09:45:44;;;;;;;19.35;18.15;;;;;;;-141.02;60.44;82121.84;5112446;28;20220;-72
2022/06/25 09:48:18;;;;;;;19.45;18.25;;;;;;;-141.02;61.86;82213.13;5112325;28;20217;-74
2022/06/25 09:50:45;;;;;;;18.92;17.73;;;;;;;-141.02;59.78;82131.56;5112077;28;20560;-73
2022/06/25 09:53:12;;;;;;;19.67;18.48;;;;;;;-141.02;59.80;82125.75;5112362;28;20345;-75
2022/06/25 09:55:40;;;;;;;19.30;18.10;;;;;;;-141.02;60.75;82117.97;5111899;28;20235;-73
2022/06/25 09:58:07;;;;;;;19.80;18.60;;;;;;;-141.02;61.23;82152.94;5112001;28;20193;-73
2022/06/25 10:00:34;;;;;;;20.13;18.83;;;;;;;-141.02;62.56;82152.94;5112243;28;20279;-72
2022/06/25 10:03:05;;;;;;;19.90;18.70;;;;;;;-141.02;59.94;82116.03;5112239;28;20200;-73
2022/06/25 10:05:40;;;;;;;19.48;18.27;;;;;;;-141.02;58.03;82015.06;5112031;28;20242;-74
2022/06/25 10:08:11;;;;;;;19.40;18.20;;;;;;;-141.02;59.16;82086.91;5112213;28;20213;-71
2022/06/25 10:10:40;;;;;;;20.02;18.83;;;;;;;-141.02;59.68;82110.22;5112319;28;20242;-75
2022/06/25 10:13:08;;;;;;;20.33;19.13;;;;;;;-141.02;59.10;82067.47;5111869;28;20675;-76
2022/06/25 10:15:37;;;;;;;20.38;19.13;;;;;;;-141.02;58.75;82079.13;5112091;28;20627;-71
2022/06/25 10:18:09;;;;;;;25.77;23.77;;;;;;;-141.02;60.20;82141.28;5113983;28;20201;-72
2022/06/25 10:20:37;;;;;;;19.92;18.73;;;;;;;-141.02;61.60;82160.69;5115522;27;20197;-74
2022/06/25 10:23:06;;;;;;;18.95;17.85;;;;;;;-141.02;62.07;82051.94;5115814;28;20229;-73
2022/06/25 10:25:34;;;;;;;18.88;17.77;;;;;;;-141.02;57.18;81733.47;5115736;27;20197;-74
2022/06/25 10:28:08;;;;;;;19.90;18.70;;;;;;;-141.02;56.53;81877.19;5115972;28;20225;-74
2022/06/25 10:30:39;;;;;;;19.70;18.50;;;;;;;-141.02;57.14;81900.47;5115724;28;20277;-73
2022/06/25 10:33:08;;;;;;;19.85;18.65;;;;;;;-141.02;57.11;81919.91;5115754;28;20240;-72
2022/06/25 10:35:37;;;;;;;19.73;18.52;;;;;;;-141.02;55.19;81795.63;5115319;28;20284;-73
2022/06/25 10:38:07;;;;;;;19.67;18.48;;;;;;;-141.02;55.58;81807.25;5115479;28;20213;-73
2022/06/25 10:40:46;;;;;;;19.65;18.45;;;;;;;-141.02;55.78;81815.03;5115168;28;20671;-72
2022/06/25 10:43:40;;;;;;;19.95;18.75;;;;;;;-141.02;56.49;81828.63;5115495;27;20224;-74
2022/06/25 10:46:28;;;;;;;19.85;18.60;;;;;;;-141.02;56.26;81947.09;5115426;28;20185;-71
2022/06/25 10:49:18;;;;;;;19.60;18.40;;;;;;;-141.02;56.11;81888.81;5114974;28;20213;-72
2022/06/25 10:51:47;;;;;;;19.58;18.38;;;;;;;-141.02;55.57;81888.81;5115376;28;20273;-71
2022/06/25 10:54:36;;;;;;;20.25;18.95;;;;;;;-141.02;57.22;81828.63;5114870;28;20199;-77
2022/06/25 10:57:05;;;;;;;19.85;18.65;;;;;;;-141.02;58.12;81978.16;5114969;28;20759;-75
2022/06/25 10:59:46;;;;;;;19.85;18.65;;;;;;;-141.02;57.72;81881.06;5115358;28;20204;-76
2022/06/25 11:02:16;;;;;;;19.85;18.65;;;;;;;-141.02;55.48;81783.97;5114803;28;20632;-76
2022/06/25 11:04:52;;;;;;;19.65;18.35;;;;;;;-141.02;53.70;81661.63;5115930;28;20232;-74
2022/06/25 11:07:21;;;;;;;19.48;18.27;;;;;;;-141.02;54.34;81632.50;5115367;28;20567;-76
2022/06/25 11:09:56;;;;;;;20.25;18.95;;;;;;;-141.02;54.21;81727.66;5114659;28;20225;-77